Time;durP1;ratioP1;P1;durP2;ratioP2;P2;SDS_P1;SDS_P2;PMS_P1;PMS_P2;Temp;Humidity;BMP_temperature;BMP_pressure;BME280_temperature;BME280_humidity;BME280_pressure;Samples;Min_cycle;Max_cycle;Signal;HPM_P1;HPM_P2
2023/07/09 00:01:17;;;;;;;7.40;2.20;;;;;;;19.35;71.03;65012.63;5031834;28;20221;-57
2023/07/09 00:03:43;;;;;;;4.80;2.28;;;;;;;19.37;71.06;65014.84;5031768;28;20216;-55
2023/07/09 00:06:08;;;;;;;6.47;2.45;;;;;;;19.39;70.14;65019.06;5031657;28;20194;-55
2023/07/09 00:08:34;;;;;;;2.50;2.22;;;;;;;19.41;69.91;65021.81;5031672;28;20726;-56
2023/07/09 00:10:59;;;;;;;10.52;2.75;;;;;;;19.36;71.30;65013.72;5031742;28;20289;-59
2023/07/09 00:13:26;;;;;;;4.10;2.47;;;;;;;19.39;71.65;65019.59;5031388;28;20210;-59
2023/07/09 00:15:54;;;;;;;3.55;2.58;;;;;;;19.30;69.83;65007.09;5031684;28;20210;-59
2023/07/09 00:18:20;;;;;;;5.63;2.38;;;;;;;19.44;69.92;65022.56;5031034;28;20210;-57
2023/07/09 00:20:47;;;;;;;3.65;2.50;;;;;;;19.48;69.89;65026.97;5031426;28;20295;-57
2023/07/09 00:23:13;;;;;;;3.42;2.28;;;;;;;19.41;69.12;65019.25;5031345;28;20300;-58
2023/07/09 00:25:43;;;;;;;8.70;2.25;;;;;;;19.35;70.69;65009.53;5031711;28;20642;-62
2023/07/09 00:28:14;;;;;;;3.72;2.55;;;;;;;19.38;70.43;65015.38;5031384;28;20206;-57
2023/07/09 00:30:39;;;;;;;3.95;2.17;;;;;;;19.44;69.04;65020.00;5031730;28;20210;-56
2023/07/09 00:33:05;;;;;;;3.97;2.20;;;;;;;19.44;68.85;65019.44;5031203;28;20221;-57
2023/07/09 00:35:30;;;;;;;6.68;2.55;;;;;;;19.41;68.64;65019.25;5031101;28;20648;-56
2023/07/09 00:38:00;;;;;;;3.10;2.15;;;;;;;19.29;69.48;65008.53;5031068;28;20233;-57
2023/07/09 00:40:26;;;;;;;3.85;2.10;;;;;;;19.33;69.24;65009.84;5031299;28;20240;-57
2023/07/09 00:42:53;;;;;;;6.70;2.33;;;;;;;19.36;69.16;65016.28;5030969;28;20237;-57
2023/07/09 00:45:24;;;;;;;4.85;2.58;;;;;;;19.41;68.83;65018.69;5031592;28;20248;-57
2023/07/09 00:48:06;;;;;;;2.88;2.35;;;;;;;19.41;68.93;65016.16;5031031;28;20267;-58
2023/07/09 00:50:37;;;;;;;5.47;2.00;;;;;;;19.41;68.79;65019.25;5031855;28;20210;-57
2023/07/09 00:53:18;;;;;;;3.20;2.20;;;;;;;19.30;68.84;65007.09;5030978;28;20256;-58
2023/07/09 00:55:49;;;;;;;7.05;2.72;;;;;;;19.35;68.93;65012.63;5031254;28;20284;-57
2023/07/09 00:58:26;;;;;;;2.28;1.65;;;;;;;19.33;71.24;65009.84;5030780;28;20293;-57
2023/07/09 01:01:00;;;;;;;3.05;2.30;;;;;;;19.37;69.30;65016.84;5031111;28;20648;-58
2023/07/09 01:03:40;;;;;;;4.47;2.45;;;;;;;19.37;69.03;65011.72;5030838;28;20256;-61
2023/07/09 01:06:06;;;;;;;4.80;2.88;;;;;;;19.29;69.35;65006.53;5030747;28;20284;-62
2023/07/09 01:08:35;;;;;;;2.92;1.90;;;;;;;19.38;68.38;65013.38;5030988;28;20209;-61
2023/07/09 01:11:01;;;;;;;4.40;2.40;;;;;;;19.41;69.93;65018.69;5030662;28;20220;-60
2023/07/09 01:13:28;;;;;;;3.78;2.30;;;;;;;19.25;70.00;65004.66;5030983;28;20390;-59
2023/07/09 01:15:55;;;;;;;3.03;2.03;;;;;;;19.29;70.65;65006.53;5029356;28;20205;-59
2023/07/09 01:18:24;;;;;;;2.85;2.42;;;;;;;19.25;68.88;65004.66;5030698;28;20209;-59
2023/07/09 01:20:52;;;;;;;7.80;2.53;;;;;;;19.35;68.33;65012.63;5030562;28;20687;-59
2023/07/09 01:23:18;;;;;;;4.57;2.13;;;;;;;19.36;67.24;65013.72;5030615;28;20213;-57
2023/07/09 01:25:52;;;;;;;5.70;2.50;;;;;;;19.19;68.55;64998.03;5030760;28;20210;-59
2023/07/09 01:28:18;;;;;;;4.95;2.45;;;;;;;19.25;68.66;65001.56;5030451;28;20207;-58
2023/07/09 01:30:44;;;;;;;3.47;2.47;;;;;;;19.22;69.63;64998.25;5034094;28;20283;-58
2023/07/09 01:33:10;;;;;;;3.88;2.75;;;;;;;19.34;69.63;65010.97;5033721;28;20245;-62
2023/07/09 01:35:40;;;;;;;2.65;2.25;;;;;;;19.29;68.87;65005.97;5034275;28;20323;-60
2023/07/09 01:38:06;;;;;;;6.40;2.70;;;;;;;19.32;69.98;65009.28;5049196;28;20646;-61
2023/07/09 01:40:32;;;;;;;3.25;2.25;;;;;;;19.26;68.96;65002.66;5033890;28;20209;-61
2023/07/09 01:42:59;;;;;;;5.40;2.45;;;;;;;19.28;69.49;65005.44;5034013;28;20197;-60
2023/07/09 01:45:25;;;;;;;4.40;2.20;;;;;;;19.33;68.98;65007.28;5033847;28;20213;-56
2023/07/09 01:47:53;;;;;;;5.53;2.42;;;;;;;19.43;72.09;65018.34;5033877;28;20240;-59
2023/07/09 01:50:19;;;;;;;5.22;2.30;;;;;;;19.37;70.77;65014.28;5033797;28;20214;-60
2023/07/09 01:52:46;;;;;;;3.05;2.55;;;;;;;19.42;71.54;65017.78;5033691;28;20220;-57
2023/07/09 01:55:13;;;;;;;4.35;2.80;;;;;;;19.66;72.11;65046.84;5033938;28;20284;-60
2023/07/09 01:57:40;;;;;;;5.40;3.00;;;;;;;19.65;74.29;65045.75;5033748;28;20194;-61
2023/07/09 02:00:09;;;;;;;5.28;3.75;;;;;;;19.22;76.58;64998.25;5032376;28;20217;-59
2023/07/09 02:02:35;;;;;;;6.95;4.07;;;;;;;19.16;77.37;64989.63;5033554;28;20260;-58
2023/07/09 02:05:02;;;;;;;7.57;4.50;;;;;;;19.26;77.84;65005.78;5033842;28;20194;-60
2023/07/09 02:07:28;;;;;;;10.63;4.75;;;;;;;19.04;79.77;64980.94;5033464;28;20690;-61
2023/07/09 02:09:53;;;;;;;7.35;4.70;;;;;;;18.99;80.68;64970.31;5033737;28;20194;-61
2023/07/09 02:12:19;;;;;;;7.35;4.30;;;;;;;18.94;81.92;64967.34;5033392;28;20627;-60
2023/07/09 02:14:45;;;;;;;8.80;4.20;;;;;;;18.83;82.11;64955.19;5033747;28;20225;-62
2023/07/09 02:17:13;;;;;;;8.45;4.93;;;;;;;18.78;82.79;64949.69;5033297;28;20224;-60
2023/07/09 02:19:39;;;;;;;7.63;4.68;;;;;;;19.00;81.68;64971.97;5033613;28;20217;-61
2023/07/09 02:22:05;;;;;;;8.70;4.68;;;;;;;18.85;82.47;64959.97;5033273;28;20198;-62
2023/07/09 02:24:31;;;;;;;10.80;3.92;;;;;;;18.80;83.15;64952.47;5033595;28;20263;-59
2023/07/09 02:26:58;;;;;;;5.18;3.75;;;;;;;18.60;83.73;64930.41;5033489;28;20229;-57
2023/07/09 02:29:25;;;;;;;5.82;3.60;;;;;;;18.43;85.42;64911.63;5033265;28;20650;-57
2023/07/09 02:31:52;;;;;;;7.35;3.40;;;;;;;18.30;87.09;64900.38;5033241;28;20240;-56
2023/07/09 02:34:18;;;;;;;6.10;3.35;;;;;;;18.05;88.63;64870.25;5033412;28;20225;-57
2023/07/09 02:36:44;;;;;;;5.50;3.38;;;;;;;18.17;87.54;64886.03;5033085;28;20193;-56
2023/07/09 02:39:11;;;;;;;4.80;3.13;;;;;;;18.03;89.03;64867.50;5033134;28;20222;-57
2023/07/09 02:41:37;;;;;;;5.25;3.30;;;;;;;18.02;89.49;64866.38;5032797;28;20194;-58
2023/07/09 02:44:03;;;;;;;3.33;2.63;;;;;;;17.74;90.45;64836.09;5032838;28;20240;-58
2023/07/09 02:46:29;;;;;;;6.88;3.15;;;;;;;17.55;90.05;64815.16;5032961;28;20202;-57
2023/07/09 02:48:55;;;;;;;5.43;2.92;;;;;;;17.36;91.10;64794.19;5032861;28;20352;-57
2023/07/09 02:51:20;;;;;;;6.10;3.40;;;;;;;17.27;92.70;64786.81;5032858;28;20582;-57
2023/07/09 02:53:45;;;;;;;6.18;3.60;;;;;;;17.11;94.67;64767.19;5032655;28;20688;-59
2023/07/09 02:56:11;;;;;;;4.30;3.13;;;;;;;17.20;96.06;64776.56;5031596;28;20684;-60
2023/07/09 02:58:37;;;;;;;4.88;3.78;;;;;;;17.23;94.79;64779.88;5032752;28;20588;-58
2023/07/09 03:01:03;;;;;;;7.75;4.50;;;;;;;17.05;95.97;64760.03;5032816;28;20215;-59
2023/07/09 03:03:28;;;;;;;4.15;3.58;;;;;;;17.14;96.03;64769.94;5032912;28;20240;-59
2023/07/09 03:05:54;;;;;;;4.15;3.15;;;;;;;16.90;97.27;64740.97;5031515;28;20198;-57
2023/07/09 03:08:19;;;;;;;9.07;3.78;;;;;;;17.14;97.01;64769.94;5032419;28;20317;-57
2023/07/09 03:10:44;;;;;;;4.93;3.45;;;;;;;17.13;97.40;64771.41;5032595;28;20206;-56
2023/07/09 03:13:10;;;;;;;5.70;3.92;;;;;;;17.30;96.34;64788.13;5032226;28;20760;-56
2023/07/09 03:15:35;;;;;;;5.45;3.58;;;;;;;17.31;96.65;64788.69;5032401;28;20272;-57
2023/07/09 03:18:01;;;;;;;6.35;3.47;;;;;;;17.23;97.25;64779.88;5032314;28;20208;-56
2023/07/09 03:20:26;;;;;;;6.38;4.10;;;;;;;17.21;97.50;64777.66;5032261;28;20206;-56
2023/07/09 03:22:53;;;;;;;5.40;3.28;;;;;;;17.17;98.88;64775.81;5032288;28;20205;-57
2023/07/09 03:25:19;;;;;;;4.82;3.80;;;;;;;17.13;98.78;64768.84;5032675;28;20198;-57
2023/07/09 03:27:48;;;;;;;7.90;3.72;;;;;;;17.26;98.43;64780.63;5047524;28;20210;-56
2023/07/09 03:30:13;;;;;;;4.47;3.50;;;;;;;17.33;98.63;64788.34;5032817;28;20190;-61
2023/07/09 03:32:39;;;;;;;6.18;3.60;;;;;;;17.42;98.87;64800.78;5032075;28;20213;-59
2023/07/09 03:35:05;;;;;;;4.78;3.40;;;;;;;17.53;97.89;64816.03;5032219;28;20210;-61
2023/07/09 03:37:30;;;;;;;7.22;3.95;;;;;;;17.88;96.54;64848.41;5032188;28;20604;-61
2023/07/09 03:39:55;;;;;;;11.90;4.18;;;;;;;17.89;95.55;64855.19;5032088;28;20588;-61
2023/07/09 03:42:22;;;;;;;5.97;3.75;;;;;;;17.60;98.15;64820.66;5031808;28;20665;-62
2023/07/09 03:44:47;;;;;;;5.72;2.90;;;;;;;17.61;96.80;64821.75;5032041;28;20198;-61
2023/07/09 03:47:13;;;;;;;7.28;3.70;;;;;;;17.71;93.76;64835.34;5031869;28;20213;-60
2023/07/09 03:49:41;;;;;;;5.60;3.00;;;;;;;17.60;94.46;64821.19;5032145;28;20206;-60
2023/07/09 03:52:07;;;;;;;4.78;3.40;;;;;;;17.52;94.62;64809.28;5031249;28;20194;-59
2023/07/09 03:54:33;;;;;;;4.68;3.20;;;;;;;17.49;95.14;64811.09;5032058;28;20256;-59
2023/07/09 03:56:59;;;;;;;6.63;3.53;;;;;;;17.50;94.91;64810.19;5031884;28;20647;-58
2023/07/09 03:59:24;;;;;;;5.88;3.38;;;;;;;17.38;95.91;64796.38;5031592;28;20214;-60
2023/07/09 04:01:50;;;;;;;5.47;3.45;;;;;;;17.51;95.88;64811.28;5032003;28;20186;-59
2023/07/09 04:04:20;;;;;;;6.40;3.35;;;;;;;17.44;96.93;64803.56;5030256;28;20209;-58
2023/07/09 04:06:45;;;;;;;4.63;3.55;;;;;;;17.52;95.83;64811.84;5031679;28;20202;-64
2023/07/09 04:09:11;;;;;;;6.70;3.50;;;;;;;17.53;95.20;64810.94;5031607;28;20229;-60
2023/07/09 04:11:36;;;;;;;4.68;3.55;;;;;;;17.64;96.07;64825.06;5031631;28;20204;-60
2023/07/09 04:14:01;;;;;;;6.28;4.22;;;;;;;17.74;95.48;64838.06;5031286;28;20213;-61
2023/07/09 04:16:27;;;;;;;7.72;3.85;;;;;;;17.70;96.21;64831.66;5030160;28;20255;-60
2023/07/09 04:18:52;;;;;;;5.18;3.63;;;;;;;17.69;96.09;64830.56;5031492;28;20873;-62
2023/07/09 04:21:18;;;;;;;7.25;4.07;;;;;;;17.78;95.52;64843.03;5031426;28;20247;-61
2023/07/09 04:23:43;;;;;;;4.63;3.42;;;;;;;17.92;96.47;64855.91;5031282;28;20587;-60
2023/07/09 04:26:13;;;;;;;4.40;3.10;;;;;;;18.08;94.72;64876.13;5031372;28;20562;-61
2023/07/09 04:28:39;;;;;;;6.97;3.70;;;;;;;18.00;95.16;64864.19;5031138;28;20210;-57
2023/07/09 04:31:04;;;;;;;6.60;3.65;;;;;;;18.09;94.62;64877.22;5030079;28;20185;-58
2023/07/09 04:33:30;;;;;;;5.25;3.60;;;;;;;18.18;93.92;64887.13;5031156;28;20225;-58
2023/07/09 04:35:55;;;;;;;6.72;4.10;;;;;;;18.20;93.67;64886.25;5031099;28;20206;-59
2023/07/09 04:38:21;;;;;;;4.72;3.47;;;;;;;18.12;95.87;64875.41;5031035;28;20202;-56
2023/07/09 04:40:47;;;;;;;8.23;4.72;;;;;;;18.38;95.08;64909.19;5031408;28;20662;-56
2023/07/09 04:43:12;;;;;;;9.35;3.78;;;;;;;18.42;94.96;64913.59;5031351;28;20297;-58
2023/07/09 04:45:37;;;;;;;8.65;4.22;;;;;;;18.50;94.58;64921.91;5031153;28;20289;-58
2023/07/09 04:48:03;;;;;;;5.85;3.78;;;;;;;18.28;96.33;64897.63;5030845;28;20222;-61
2023/07/09 04:50:29;;;;;;;5.80;4.32;;;;;;;18.29;96.78;64898.72;5031016;28;20202;-56
2023/07/09 04:52:54;;;;;;;8.00;4.47;;;;;;;18.36;97.44;64904.44;5030836;28;20235;-56
2023/07/09 04:55:20;;;;;;;5.57;4.22;;;;;;;18.56;96.51;64928.53;5031279;28;20692;-57
2023/07/09 04:57:46;;;;;;;7.32;4.88;;;;;;;18.34;97.43;64902.22;5030829;28;20222;-57
2023/07/09 05:00:12;;;;;;;8.48;4.63;;;;;;;18.58;97.07;64930.75;5031142;28;20205;-58
2023/07/09 05:02:37;;;;;;;6.15;4.38;;;;;;;18.53;97.07;64922.09;5031018;28;20249;-56
2023/07/09 05:05:03;;;;;;;5.57;4.20;;;;;;;18.48;94.07;64916.59;5029941;28;20234;-56
2023/07/09 05:07:29;;;;;;;5.80;4.60;;;;;;;18.68;96.14;64936.66;5030847;28;20285;-58
2023/07/09 05:09:54;;;;;;;6.07;4.60;;;;;;;18.73;96.92;64942.19;5030988;28;20209;-59
2023/07/09 05:12:20;;;;;;;5.60;4.63;;;;;;;18.77;95.54;64949.13;5030591;28;20285;-57
2023/07/09 05:14:46;;;;;;;9.10;5.85;;;;;;;19.02;95.60;64976.75;5031053;28;20237;-61
2023/07/09 05:17:11;;;;;;;8.23;4.65;;;;;;;19.15;95.49;64993.06;5030743;28;20201;-62
2023/07/09 05:19:37;;;;;;;8.63;5.18;;;;;;;19.14;93.05;64989.41;5029576;28;20683;-61
2023/07/09 05:22:03;;;;;;;11.70;5.07;;;;;;;19.15;93.20;64993.06;5030593;28;20202;-60
2023/07/09 05:24:28;;;;;;;6.22;4.18;;;;;;;19.15;90.63;64991.06;5030631;28;20221;-60
2023/07/09 05:26:54;;;;;;;9.40;3.85;;;;;;;19.13;89.80;64986.31;5029326;28;20204;-60
2023/07/09 05:29:20;;;;;;;5.82;4.25;;;;;;;19.53;90.29;65032.50;5030454;28;20706;-60
2023/07/09 05:31:45;;;;;;;6.55;4.47;;;;;;;20.08;95.94;65093.25;5030529;28;20186;-61
2023/07/09 05:34:11;;;;;;;5.85;4.00;;;;;;;19.88;92.31;65071.16;5030392;28;20214;-60
2023/07/09 05:36:36;;;;;;;8.40;5.07;;;;;;;19.80;88.55;65059.75;5030463;28;20686;-61
2023/07/09 05:39:02;;;;;;;6.65;4.35;;;;;;;19.68;89.85;65049.06;5030316;28;20213;-58
2023/07/09 05:41:27;;;;;;;5.32;4.60;;;;;;;19.84;88.44;65063.63;5030344;28;20732;-57
2023/07/09 05:43:53;;;;;;;9.45;5.32;;;;;;;19.94;86.67;65077.78;5030430;28;20303;-58
2023/07/09 05:46:19;;;;;;;10.07;5.10;;;;;;;19.74;84.12;65052.56;5030445;28;20194;-58
2023/07/09 05:48:45;;;;;;;7.90;4.25;;;;;;;19.64;84.82;65042.09;5030145;28;20209;-57
2023/07/09 05:51:10;;;;;;;9.00;5.80;;;;;;;19.63;82.33;65046.09;5030514;28;20198;-58
2023/07/09 05:53:35;;;;;;;6.20;3.55;;;;;;;19.63;80.92;65043.56;5030254;28;20283;-59
2023/07/09 05:56:01;;;;;;;6.07;3.70;;;;;;;19.61;77.66;65041.34;5030244;28;20676;-60
2023/07/09 05:58:27;;;;;;;8.73;4.80;;;;;;;19.52;79.01;65031.38;5045454;28;20232;-57
2023/07/09 06:00:53;;;;;;;7.90;3.40;;;;;;;19.53;79.69;65029.94;5030646;28;20186;-56
2023/07/09 06:03:21;;;;;;;8.02;3.63;;;;;;;19.66;84.01;65048.84;5030425;28;20198;-58
2023/07/09 06:05:49;;;;;;;6.20;3.53;;;;;;;19.56;78.47;65033.25;5030447;28;20272;-60
2023/07/09 06:08:16;;;;;;;5.13;3.00;;;;;;;19.55;76.75;65036.72;5029954;28;20234;-58
2023/07/09 06:10:57;;;;;;;12.15;5.22;;;;;;;19.86;81.54;65068.94;5030156;28;20684;-59
2023/07/09 06:13:23;;;;;;;5.82;3.65;;;;;;;20.14;81.68;65096.22;5029768;28;20214;-60
2023/07/09 06:15:50;;;;;;;9.68;3.47;;;;;;;20.56;79.13;65145.75;5031347;28;20217;-62
2023/07/09 06:18:15;;;;;;;7.20;3.00;;;;;;;20.79;91.44;65168.03;5033062;28;20202;-61
2023/07/09 06:20:41;;;;;;;6.40;3.63;;;;;;;21.23;75.96;65216.72;5032988;28;20217;-61
2023/07/09 06:23:07;;;;;;;3.47;2.80;;;;;;;21.47;81.23;65245.81;5033360;28;20202;-60
2023/07/09 06:25:32;;;;;;;4.47;3.33;;;;;;;21.37;77.80;65231.66;5048633;28;20198;-58
2023/07/09 06:27:57;;;;;;;5.20;3.47;;;;;;;21.71;86.98;65271.84;5032982;28;20202;-58
2023/07/09 06:30:23;;;;;;;5.55;3.10;;;;;;;22.11;79.42;65313.00;5033521;28;20259;-57
2023/07/09 06:32:48;;;;;;;6.50;3.30;;;;;;;22.16;75.19;65321.09;5033061;28;20336;-57
2023/07/09 06:35:14;;;;;;;8.50;3.38;;;;;;;22.39;79.32;65341.41;5048210;28;20214;-57
2023/07/09 06:37:39;;;;;;;3.20;2.90;;;;;;;22.93;76.59;65403.78;5069753;22;20229;-57
2023/07/09 06:40:08;;;;;;;5.57;3.28;;;;;;;22.04;72.31;65305.78;5033005;28;20319;-61
2023/07/09 06:42:34;;;;;;;5.22;2.90;;;;;;;22.47;70.03;65355.41;5032590;28;20210;-58
2023/07/09 06:44:59;;;;;;;4.47;3.05;;;;;;;22.20;71.07;65323.50;5032779;28;20679;-58
2023/07/09 06:47:24;;;;;;;4.40;3.00;;;;;;;22.54;66.09;65363.16;5032804;28;20194;-60
2023/07/09 06:49:50;;;;;;;4.05;3.22;;;;;;;22.77;69.59;65386.06;5048164;28;20186;-59
2023/07/09 06:52:16;;;;;;;6.68;3.03;;;;;;;22.96;70.55;65407.13;5032562;28;20210;-57
2023/07/09 06:54:41;;;;;;;4.20;2.97;;;;;;;22.76;70.44;65384.97;5031157;28;20714;-58
2023/07/09 06:57:07;;;;;;;4.43;2.85;;;;;;;22.97;67.82;65407.66;5032628;28;20206;-57
2023/07/09 06:59:32;;;;;;;7.07;2.88;;;;;;;22.87;68.58;65394.00;5032397;28;20640;-58
2023/07/09 07:01:57;;;;;;;3.35;2.83;;;;;;;22.98;68.74;65411.34;5032258;28;20305;-57
2023/07/09 07:04:26;;;;;;;4.38;2.47;;;;;;;23.22;67.76;65437.94;5032443;28;20206;-57
2023/07/09 07:06:51;;;;;;;9.80;2.95;;;;;;;22.62;63.05;65369.47;5032394;28;20268;-57
2023/07/09 07:09:17;;;;;;;3.05;2.55;;;;;;;22.57;66.90;65363.91;5032344;28;20206;-57
2023/07/09 07:11:42;;;;;;;6.63;3.20;;;;;;;22.60;62.57;65364.13;5032204;28;20282;-57
2023/07/09 07:14:07;;;;;;;5.07;2.75;;;;;;;22.38;64.60;65346.00;5032294;28;20210;-57
2023/07/09 07:16:33;;;;;;;4.53;2.90;;;;;;;22.40;64.07;65347.66;5032465;28;20253;-57
2023/07/09 07:19:05;;;;;;;6.95;3.13;;;;;;;22.53;65.89;65359.47;5068420;22;20702;-57
2023/07/09 07:21:31;;;;;;;6.70;2.70;;;;;;;22.31;66.37;65335.69;5072045;28;20283;-59
2023/07/09 07:23:56;;;;;;;3.90;3.13;;;;;;;22.37;61.53;65344.34;5057092;28;20292;-57
2023/07/09 07:26:22;;;;;;;3.95;2.72;;;;;;;22.08;60.35;65309.69;5051215;28;20205;-60
2023/07/09 07:28:48;;;;;;;4.10;3.17;;;;;;;22.03;62.30;65304.13;5052088;28;20228;-56
2023/07/09 07:31:14;;;;;;;6.47;3.55;;;;;;;22.12;65.38;65314.66;5051788;28;20197;-57
2023/07/09 07:33:41;;;;;;;7.43;4.50;;;;;;;22.18;67.64;65321.28;5051751;28;20296;-57
2023/07/09 07:36:07;;;;;;;7.05;4.40;;;;;;;22.34;69.10;65338.44;5052112;28;20256;-57
2023/07/09 07:38:33;;;;;;;7.35;4.90;;;;;;;22.56;68.95;65365.38;5034097;28;20213;-57
2023/07/09 07:41:01;;;;;;;6.18;3.38;;;;;;;22.70;65.31;65380.34;5051925;28;20198;-57
2023/07/09 07:43:26;;;;;;;6.90;3.65;;;;;;;22.51;63.06;65357.81;5051867;28;20205;-61
2023/07/09 07:45:51;;;;;;;7.15;3.33;;;;;;;22.58;64.33;65365.03;5051600;28;20205;-61
2023/07/09 07:48:17;;;;;;;4.40;2.80;;;;;;;22.41;60.28;65346.75;5051534;28;20300;-61
2023/07/09 07:50:45;;;;;;;5.05;3.30;;;;;;;22.32;65.11;65336.25;5017212;28;20205;-61
2023/07/09 07:53:11;;;;;;;6.63;3.53;;;;;;;22.78;67.84;65386.63;5050229;28;20219;-61
2023/07/09 07:55:37;;;;;;;6.07;3.10;;;;;;;23.06;67.38;65417.63;5052000;28;20198;-61
2023/07/09 07:58:03;;;;;;;4.05;2.92;;;;;;;23.45;60.66;65460.88;5051745;28;20228;-60
2023/07/09 08:00:29;;;;;;;7.95;3.38;;;;;;;23.49;65.91;65464.75;5051398;28;20224;-60
2023/07/09 08:02:55;;;;;;;5.50;3.50;;;;;;;23.56;64.29;65473.06;5051562;28;20209;-60
2023/07/09 08:05:20;;;;;;;6.22;3.25;;;;;;;23.57;60.26;65474.16;5050121;28;20205;-58
2023/07/09 08:07:46;;;;;;;3.97;2.90;;;;;;;23.57;61.30;65474.16;5051705;28;20683;-57
2023/07/09 08:10:12;;;;;;;4.10;2.90;;;;;;;23.68;63.73;65483.22;5051513;28;20735;-57
2023/07/09 08:12:38;;;;;;;3.60;2.83;;;;;;;23.48;60.32;65461.06;5051501;28;20236;-58
2023/07/09 08:15:06;;;;;;;3.20;2.90;;;;;;;23.47;64.99;65463.09;5051055;28;20302;-57
2023/07/09 08:17:31;;;;;;;4.63;3.10;;;;;;;23.72;66.78;65488.22;5051439;28;20218;-56
2023/07/09 08:19:57;;;;;;;4.85;3.08;;;;;;;23.45;62.56;65460.31;5051139;28;20736;-56
2023/07/09 08:22:22;;;;;;;3.05;2.50;;;;;;;23.63;60.16;65480.25;5051079;28;20559;-59
2023/07/09 08:24:51;;;;;;;7.10;3.05;;;;;;;23.48;56.53;65464.19;5051186;28;20296;-59
2023/07/09 08:27:18;;;;;;;4.97;2.92;;;;;;;23.40;57.52;65455.31;5051131;28;20197;-59
2023/07/09 08:29:43;;;;;;;9.70;2.60;;;;;;;23.46;58.58;65461.41;5051141;28;20216;-59
2023/07/09 08:32:10;;;;;;;3.47;3.15;;;;;;;23.24;59.35;65438.13;5051135;28;20231;-60
2023/07/09 08:34:38;;;;;;;6.55;3.38;;;;;;;23.31;60.57;65445.91;5051134;28;20266;-60
2023/07/09 08:37:06;;;;;;;5.93;3.28;;;;;;;23.37;58.47;65454.59;5049749;28;20205;-59
2023/07/09 08:39:31;;;;;;;6.53;3.55;;;;;;;23.52;59.62;65473.78;5050770;28;20691;-59
2023/07/09 08:42:08;;;;;;;5.38;3.05;;;;;;;23.51;56.12;65466.97;5051030;28;20248;-59
2023/07/09 08:45:02;;;;;;;4.45;3.72;;;;;;;23.70;63.83;65485.44;5050887;28;20201;-60
2023/07/09 08:48:12;;;;;;;6.90;3.22;;;;;;;23.30;58.34;65444.78;5050889;28;20714;-60
2023/07/09 08:50:50;;;;;;;6.38;3.80;;;;;;;23.36;60.98;65450.91;5047522;28;20786;-65
2023/07/09 08:53:41;;;;;;;5.07;4.30;;;;;;;23.18;60.28;65428.91;5050698;28;20205;-58
2023/07/09 08:56:09;;;;;;;6.68;4.30;;;;;;;23.41;68.53;65456.44;5050744;28;20193;-63
2023/07/09 08:58:37;;;;;;;4.43;4.03;;;;;;;23.17;60.79;65430.38;5050834;28;20202;-62
2023/07/09 09:01:06;;;;;;;8.52;3.80;;;;;;;23.14;61.45;65427.06;5050622;28;20247;-62
2023/07/09 09:03:39;;;;;;;6.22;3.80;;;;;;;22.98;60.12;65411.34;5050775;28;20324;-62
2023/07/09 09:06:14;;;;;;;6.07;3.95;;;;;;;23.08;61.26;65420.41;5050776;28;20206;-61
2023/07/09 09:09:11;;;;;;;6.50;4.00;;;;;;;23.11;60.45;65420.59;5050323;28;20588;-58
2023/07/09 09:11:45;;;;;;;5.35;3.72;;;;;;;23.15;60.56;65430.72;5050543;28;20197;-60
2023/07/09 09:14:19;;;;;;;8.88;3.95;;;;;;;23.27;61.20;65443.47;5050299;28;20339;-59
2023/07/09 09:16:47;;;;;;;5.85;4.25;;;;;;;23.34;61.09;65449.25;5049144;28;20224;-58
2023/07/09 09:19:22;;;;;;;6.85;4.22;;;;;;;23.34;61.17;65449.25;5050362;28;20205;-63
2023/07/09 09:21:52;;;;;;;4.85;4.15;;;;;;;23.41;61.27;65455.88;5050355;28;21063;-62
2023/07/09 09:24:28;;;;;;;5.43;3.83;;;;;;;23.42;61.29;65456.97;5050362;28;20221;-64
2023/07/09 09:26:58;;;;;;;4.78;3.25;;;;;;;23.43;59.89;65460.69;5050254;28;20254;-61
2023/07/09 09:29:24;;;;;;;4.75;4.32;;;;;;;23.58;57.89;65472.13;5050331;28;20217;-63
2023/07/09 09:31:57;;;;;;;5.50;4.03;;;;;;;23.59;58.77;65475.84;5050309;28;20239;-62
2023/07/09 09:34:27;;;;;;;5.65;3.78;;;;;;;23.69;57.85;65489.47;5050099;28;20651;-62
2023/07/09 09:36:53;;;;;;;5.32;3.88;;;;;;;23.76;57.01;65494.66;5050214;28;20194;-62
2023/07/09 09:39:18;;;;;;;5.85;3.65;;;;;;;23.81;58.03;65497.63;5050197;28;20201;-58
2023/07/09 09:41:45;;;;;;;6.32;3.72;;;;;;;23.85;56.21;65502.06;5049951;28;20320;-58
2023/07/09 09:44:21;;;;;;;6.47;3.40;;;;;;;23.40;57.77;65455.31;5050020;28;20363;-57
2023/07/09 09:46:49;;;;;;;6.53;3.95;;;;;;;24.08;56.88;65530.72;5050106;28;20323;-57
2023/07/09 09:49:14;;;;;;;3.75;3.25;;;;;;;24.18;58.98;65541.25;5048708;28;20216;-58
2023/07/09 09:51:44;;;;;;;6.32;3.50;;;;;;;24.43;58.17;65566.41;5052990;28;20640;-61
2023/07/09 09:54:18;;;;;;;4.07;3.67;;;;;;;24.55;56.72;65586.88;5053241;28;20209;-60
2023/07/09 09:56:43;;;;;;;5.25;3.38;;;;;;;24.75;55.97;65604.47;5053409;28;20666;-60
2023/07/09 09:59:30;;;;;;;3.92;3.53;;;;;;;24.70;53.69;65598.94;5053409;28;20258;-60
2023/07/09 10:02:01;;;;;;;7.45;3.45;;;;;;;24.58;53.19;65585.63;5053673;28;20186;-60
2023/07/09 10:04:27;;;;;;;3.33;2.88;;;;;;;24.51;53.90;65575.25;5053587;28;20216;-61
2023/07/09 10:07:00;;;;;;;4.20;3.80;;;;;;;24.64;54.21;65592.28;5053349;28;20627;-60
2023/07/09 10:09:49;;;;;;;4.93;2.90;;;;;;;24.81;53.87;65611.13;5053449;28;20228;-59
2023/07/09 10:12:44;;;;;;;3.78;3.15;;;;;;;24.90;52.61;65618.00;5053359;28;20301;-63
2023/07/09 10:15:57;;;;;;;6.35;4.75;;;;;;;25.29;55.82;65660.72;5052957;28;20224;-56
2023/07/09 10:18:23;;;;;;;5.45;3.80;;;;;;;25.36;51.63;65669.03;5035642;28;20229;-56
2023/07/09 10:20:57;;;;;;;8.82;6.85;;;;;;;25.64;50.24;65702.72;5053036;28;20197;-62
2023/07/09 10:24:03;;;;;;;9.55;5.28;;;;;;;25.85;53.58;65722.91;5053103;28;20300;-61
2023/07/09 10:26:46;;;;;;;6.07;3.33;;;;;;;26.21;52.89;65762.91;5000737;28;20294;-61
2023/07/09 10:29:45;;;;;;;9.68;3.50;;;;;;;26.02;49.43;65741.22;5052869;28;20710;-61
2023/07/09 10:32:48;;;;;;;4.22;3.33;;;;;;;26.29;50.41;65771.22;5053118;28;20210;-59
2023/07/09 10:35:22;;;;;;;5.40;3.50;;;;;;;26.68;51.30;65814.56;5014226;28;20228;-58
2023/07/09 10:38:12;;;;;;;5.32;3.58;;;;;;;26.50;48.26;65797.16;5053161;28;20219;-58
2023/07/09 10:40:45;;;;;;;4.28;3.17;;;;;;;26.75;48.23;65821.78;5052847;28;20204;-58
2023/07/09 10:43:16;;;;;;;4.35;3.33;;;;;;;26.84;47.20;65834.94;5052876;28;20702;-58
2023/07/09 10:45:55;;;;;;;4.45;3.15;;;;;;;26.78;47.20;65825.13;5052770;28;20672;-60
2023/07/09 10:48:35;;;;;;;5.25;3.38;;;;;;;26.76;46.80;65825.50;5052753;28;20212;-59
2023/07/09 10:51:02;;;;;;;5.57;3.60;;;;;;;26.68;44.73;65816.59;5052751;28;20263;-61
2023/07/09 10:53:31;;;;;;;4.43;3.10;;;;;;;26.36;43.46;65782.13;5052429;28;20699;-60
2023/07/09 10:56:02;;;;;;;3.05;2.75;;;;;;;26.57;43.91;65802.88;5052501;28;20233;-62
2023/07/09 10:58:30;;;;;;;3.20;2.90;;;;;;;26.50;44.70;65800.28;5034623;28;20213;-61
2023/07/09 11:00:57;;;;;;;4.18;3.28;;;;;;;26.80;45.50;65830.50;5052671;28;20197;-61
2023/07/09 11:03:27;;;;;;;3.10;2.80;;;;;;;27.00;45.21;65852.19;5052649;28;20213;-62
2023/07/09 11:05:53;;;;;;;5.30;3.35;;;;;;;27.01;42.59;65850.69;5052521;28;20238;-62
2023/07/09 11:08:25;;;;;;;4.68;3.20;;;;;;;26.92;42.08;65840.69;5052300;28;20205;-61
2023/07/09 11:10:56;;;;;;;4.05;3.15;;;;;;;26.78;42.52;65827.72;5052540;28;20231;-60
2023/07/09 11:13:37;;;;;;;3.80;2.90;;;;;;;26.77;43.55;65824.00;5051998;28;20695;-60
2023/07/09 11:16:05;;;;;;;4.25;3.20;;;;;;;26.88;43.20;65838.84;5052187;28;20197;-57
2023/07/09 11:18:33;;;;;;;4.28;2.78;;;;;;;26.79;41.76;65829.38;5052430;28;20643;-57
2023/07/09 11:21:23;;;;;;;3.50;2.97;;;;;;;26.92;42.00;65843.28;5052350;28;20170;-58
2023/07/09 11:23:51;;;;;;;7.28;3.28;;;;;;;27.06;41.95;65858.84;5051828;28;20304;-59
2023/07/09 11:26:28;;;;;;;5.20;3.42;;;;;;;27.15;41.44;65868.84;5051885;28;20193;-57
2023/07/09 11:29:15;;;;;;;4.47;3.05;;;;;;;27.30;41.55;65882.94;5052039;28;20649;-57
2023/07/09 11:31:45;;;;;;;4.18;3.13;;;;;;;27.06;40.34;65862.00;5051113;28;20690;-61
2023/07/09 11:34:17;;;;;;;3.65;2.90;;;;;;;27.03;39.72;65856.06;5051899;28;20331;-60
2023/07/09 11:36:55;;;;;;;3.70;2.60;;;;;;;26.99;40.81;65851.06;5051983;28;20185;-57
2023/07/09 11:39:43;;;;;;;3.65;2.70;;;;;;;27.57;41.95;65915.56;5050354;28;20213;-57
2023/07/09 11:42:27;;;;;;;2.90;2.47;;;;;;;27.52;40.29;65906.84;5052072;28;20212;-59